sensor_id;sensor_type;location;lat;lon;timestamp;P1;durP1;ratioP1;P2;durP2;ratioP2
29314;SDS011;16320;53.954;9.506;2023-03-23T00:51:59;58.50;;;29.67;;
29314;SDS011;16320;53.954;9.506;2023-03-23T06:29:02;51.88;;;29.58;;
29314;SDS011;16320;53.954;9.506;2023-03-23T06:40:19;50.53;;;27.83;;
29314;SDS011;16320;53.954;9.506;2023-03-23T06:44:54;46.22;;;27.77;;
29314;SDS011;16320;53.954;9.506;2023-03-23T06:53:19;44.10;;;25.38;;
29314;SDS011;16320;53.954;9.506;2023-03-23T07:00:38;53.55;;;24.80;;
29314;SDS011;16320;53.954;9.506;2023-03-23T07:03:45;27.80;;;15.45;;
29314;SDS011;16320;53.954;9.506;2023-03-23T07:06:51;22.73;;;12.65;;
29314;SDS011;16320;53.954;9.506;2023-03-23T07:09:55;20.20;;;8.88;;
29314;SDS011;16320;53.954;9.506;2023-03-23T07:12:59;14.30;;;6.93;;
29314;SDS011;16320;53.954;9.506;2023-03-23T07:16:04;15.27;;;4.63;;
29314;SDS011;16320;53.954;9.506;2023-03-23T07:19:09;6.80;;;2.78;;
29314;SDS011;16320;53.954;9.506;2023-03-23T07:22:12;14.02;;;3.05;;
29314;SDS011;16320;53.954;9.506;2023-03-23T07:25:16;8.10;;;2.17;;
29314;SDS011;16320;53.954;9.506;2023-03-23T07:28:21;9.32;;;2.80;;
29314;SDS011;16320;53.954;9.506;2023-03-23T07:31:24;18.42;;;2.80;;
29314;SDS011;16320;53.954;9.506;2023-03-23T07:34:28;14.05;;;2.38;;
29314;SDS011;16320;53.954;9.506;2023-03-23T07:37:31;10.18;;;1.95;;
29314;SDS011;16320;53.954;9.506;2023-03-23T07:40:35;12.32;;;1.98;;
29314;SDS011;16320;53.954;9.506;2023-03-23T07:43:38;14.98;;;2.75;;
29314;SDS011;16320;53.954;9.506;2023-03-23T07:46:44;11.70;;;2.25;;
29314;SDS011;16320;53.954;9.506;2023-03-23T07:49:47;14.25;;;2.40;;
29314;SDS011;16320;53.954;9.506;2023-03-23T07:52:51;10.98;;;1.52;;
29314;SDS011;16320;53.954;9.506;2023-03-23T07:55:58;8.98;;;2.35;;
29314;SDS011;16320;53.954;9.506;2023-03-23T07:59:03;12.07;;;1.88;;
29314;SDS011;16320;53.954;9.506;2023-03-23T08:02:08;7.07;;;2.00;;
29314;SDS011;16320;53.954;9.506;2023-03-23T08:05:12;8.05;;;1.85;;
29314;SDS011;16320;53.954;9.506;2023-03-23T08:08:16;12.27;;;2.92;;
29314;SDS011;16320;53.954;9.506;2023-03-23T08:11:21;11.93;;;2.53;;
29314;SDS011;16320;53.954;9.506;2023-03-23T08:14:24;9.02;;;2.90;;
29314;SDS011;16320;53.954;9.506;2023-03-23T08:17:30;13.95;;;3.30;;
29314;SDS011;16320;53.954;9.506;2023-03-23T08:20:34;12.57;;;3.20;;
29314;SDS011;16320;53.954;9.506;2023-03-23T08:23:38;12.98;;;3.63;;
29314;SDS011;16320;53.954;9.506;2023-03-23T08:26:41;14.70;;;4.00;;
29314;SDS011;16320;53.954;9.506;2023-03-23T08:29:44;10.95;;;3.35;;
29314;SDS011;16320;53.954;9.506;2023-03-23T08:32:48;10.52;;;2.88;;
29314;SDS011;16320;53.954;9.506;2023-03-23T08:35:56;11.98;;;3.20;;
29314;SDS011;16320;53.954;9.506;2023-03-23T08:39:01;12.55;;;3.50;;
29314;SDS011;16320;53.954;9.506;2023-03-23T08:42:07;17.10;;;3.47;;
29314;SDS011;16320;53.954;9.506;2023-03-23T08:45:11;11.38;;;2.75;;
29314;SDS011;16320;53.954;9.506;2023-03-23T08:48:19;17.40;;;3.85;;
29314;SDS011;16320;53.954;9.506;2023-03-23T08:51:23;10.63;;;3.25;;
29314;SDS011;16320;53.954;9.506;2023-03-23T08:54:26;18.55;;;2.95;;
29314;SDS011;16320;53.954;9.506;2023-03-23T08:57:32;16.08;;;3.15;;
29314;SDS011;16320;53.954;9.506;2023-03-23T09:00:36;16.27;;;2.40;;
29314;SDS011;16320;53.954;9.506;2023-03-23T09:03:39;20.58;;;4.10;;
29314;SDS011;16320;53.954;9.506;2023-03-23T09:06:43;19.13;;;3.08;;
29314;SDS011;16320;53.954;9.506;2023-03-23T09:09:48;20.80;;;3.05;;
29314;SDS011;16320;53.954;9.506;2023-03-23T09:12:52;17.40;;;3.50;;
29314;SDS011;16320;53.954;9.506;2023-03-23T09:15:57;17.35;;;3.67;;
29314;SDS011;16320;53.954;9.506;2023-03-23T09:19:01;18.63;;;3.00;;
29314;SDS011;16320;53.954;9.506;2023-03-23T09:22:04;22.88;;;3.50;;
29314;SDS011;16320;53.954;9.506;2023-03-23T09:25:08;13.82;;;3.53;;
29314;SDS011;16320;53.954;9.506;2023-03-23T09:28:15;14.30;;;2.80;;
29314;SDS011;16320;53.954;9.506;2023-03-23T09:31:18;17.65;;;2.75;;
29314;SDS011;16320;53.954;9.506;2023-03-23T09:34:26;16.48;;;3.00;;
29314;SDS011;16320;53.954;9.506;2023-03-23T09:37:31;18.23;;;3.20;;
29314;SDS011;16320;53.954;9.506;2023-03-23T09:47:21;13.30;;;2.33;;
29314;SDS011;16320;53.954;9.506;2023-03-23T09:50:44;14.88;;;2.70;;
29314;SDS011;16320;53.954;9.506;2023-03-23T09:53:53;17.38;;;3.00;;
29314;SDS011;16320;53.954;9.506;2023-03-23T09:57:05;12.40;;;2.22;;
29314;SDS011;16320;53.954;9.506;2023-03-23T10:00:32;14.23;;;2.13;;
29314;SDS011;16320;53.954;9.506;2023-03-23T10:03:44;18.15;;;2.17;;
29314;SDS011;16320;53.954;9.506;2023-03-23T10:06:49;15.60;;;2.40;;
29314;SDS011;16320;53.954;9.506;2023-03-23T10:09:57;10.93;;;2.03;;
29314;SDS011;16320;53.954;9.506;2023-03-23T10:13:14;18.65;;;2.50;;
29314;SDS011;16320;53.954;9.506;2023-03-23T10:16:59;17.52;;;2.20;;
29314;SDS011;16320;53.954;9.506;2023-03-23T10:20:21;11.32;;;2.20;;
29314;SDS011;16320;53.954;9.506;2023-03-23T10:23:48;13.18;;;1.63;;
29314;SDS011;16320;53.954;9.506;2023-03-23T10:27:11;8.25;;;1.80;;
29314;SDS011;16320;53.954;9.506;2023-03-23T10:30:41;13.85;;;2.70;;
29314;SDS011;16320;53.954;9.506;2023-03-23T10:33:50;15.88;;;2.50;;
29314;SDS011;16320;53.954;9.506;2023-03-23T10:37:15;8.73;;;1.70;;
29314;SDS011;16320;53.954;9.506;2023-03-23T10:40:28;12.23;;;2.17;;
29314;SDS011;16320;53.954;9.506;2023-03-23T10:43:38;19.23;;;2.55;;
29314;SDS011;16320;53.954;9.506;2023-03-23T10:49:58;12.02;;;3.03;;
29314;SDS011;16320;53.954;9.506;2023-03-23T10:53:14;18.67;;;3.03;;
29314;SDS011;16320;53.954;9.506;2023-03-23T10:56:36;16.02;;;3.40;;
29314;SDS011;16320;53.954;9.506;2023-03-23T10:59:43;23.00;;;3.38;;
29314;SDS011;16320;53.954;9.506;2023-03-23T11:02:57;13.02;;;3.20;;
29314;SDS011;16320;53.954;9.506;2023-03-23T11:06:10;13.55;;;3.03;;
29314;SDS011;16320;53.954;9.506;2023-03-23T11:09:33;21.75;;;3.13;;
29314;SDS011;16320;53.954;9.506;2023-03-23T11:12:43;19.55;;;2.65;;
29314;SDS011;16320;53.954;9.506;2023-03-23T11:15:50;12.18;;;2.33;;
29314;SDS011;16320;53.954;9.506;2023-03-23T11:18:54;16.88;;;2.75;;
29314;SDS011;16320;53.954;9.506;2023-03-23T11:22:05;21.23;;;3.17;;
29314;SDS011;16320;53.954;9.506;2023-03-23T11:25:19;24.02;;;3.85;;
29314;SDS011;16320;53.954;9.506;2023-03-23T11:31:35;13.93;;;2.85;;
29314;SDS011;16320;53.954;9.506;2023-03-23T11:34:45;19.58;;;3.55;;
29314;SDS011;16320;53.954;9.506;2023-03-23T11:37:59;20.60;;;3.50;;
29314;SDS011;16320;53.954;9.506;2023-03-23T11:41:08;20.55;;;3.42;;
29314;SDS011;16320;53.954;9.506;2023-03-23T11:44:15;21.23;;;4.05;;
29314;SDS011;16320;53.954;9.506;2023-03-23T11:47:40;24.30;;;3.85;;
29314;SDS011;16320;53.954;9.506;2023-03-23T11:54:34;18.70;;;5.32;;
29314;SDS011;16320;53.954;9.506;2023-03-23T11:57:49;16.48;;;3.30;;
29314;SDS011;16320;53.954;9.506;2023-03-23T12:00:56;24.20;;;5.07;;
29314;SDS011;16320;53.954;9.506;2023-03-23T12:15:22;17.23;;;3.28;;
29314;SDS011;16320;53.954;9.506;2023-03-23T12:19:03;20.65;;;5.22;;
29314;SDS011;16320;53.954;9.506;2023-03-23T12:36:34;19.55;;;3.78;;
29314;SDS011;16320;53.954;9.506;2023-03-23T12:43:28;19.05;;;3.30;;
29314;SDS011;16320;53.954;9.506;2023-03-23T12:46:52;20.63;;;3.58;;
29314;SDS011;16320;53.954;9.506;2023-03-23T12:50:13;16.88;;;3.58;;
29314;SDS011;16320;53.954;9.506;2023-03-23T12:53:32;17.58;;;3.42;;
29314;SDS011;16320;53.954;9.506;2023-03-23T12:57:00;19.83;;;3.05;;
29314;SDS011;16320;53.954;9.506;2023-03-23T13:07:21;17.83;;;3.38;;
29314;SDS011;16320;53.954;9.506;2023-03-23T13:10:40;22.45;;;3.53;;
29314;SDS011;16320;53.954;9.506;2023-03-23T13:13:52;19.35;;;3.45;;
29314;SDS011;16320;53.954;9.506;2023-03-23T13:21:00;19.42;;;2.78;;
29314;SDS011;16320;53.954;9.506;2023-03-23T13:24:21;19.95;;;3.40;;
29314;SDS011;16320;53.954;9.506;2023-03-23T13:27:29;12.50;;;2.70;;
29314;SDS011;16320;53.954;9.506;2023-03-23T13:30:32;15.63;;;3.28;;
29314;SDS011;16320;53.954;9.506;2023-03-23T13:33:36;11.55;;;2.40;;
29314;SDS011;16320;53.954;9.506;2023-03-23T13:43:24;16.50;;;3.03;;
29314;SDS011;16320;53.954;9.506;2023-03-23T13:46:33;13.00;;;3.40;;
29314;SDS011;16320;53.954;9.506;2023-03-23T13:49:44;13.20;;;3.28;;
29314;SDS011;16320;53.954;9.506;2023-03-23T13:53:15;19.10;;;3.50;;
29314;SDS011;16320;53.954;9.506;2023-03-23T14:03:38;21.17;;;4.80;;
29314;SDS011;16320;53.954;9.506;2023-03-23T14:06:44;21.35;;;4.00;;
29314;SDS011;16320;53.954;9.506;2023-03-23T14:09:51;23.25;;;4.15;;
29314;SDS011;16320;53.954;9.506;2023-03-23T14:12:55;17.02;;;3.97;;
29314;SDS011;16320;53.954;9.506;2023-03-23T14:16:02;22.30;;;4.05;;
29314;SDS011;16320;53.954;9.506;2023-03-23T14:19:29;22.80;;;3.58;;
29314;SDS011;16320;53.954;9.506;2023-03-23T14:22:35;25.08;;;4.05;;
29314;SDS011;16320;53.954;9.506;2023-03-23T14:25:43;26.60;;;3.92;;
29314;SDS011;16320;53.954;9.506;2023-03-23T14:28:49;17.58;;;3.40;;
29314;SDS011;16320;53.954;9.506;2023-03-23T14:31:55;18.90;;;4.18;;
29314;SDS011;16320;53.954;9.506;2023-03-23T14:35:04;27.08;;;3.90;;
29314;SDS011;16320;53.954;9.506;2023-03-23T14:38:20;23.17;;;4.03;;
29314;SDS011;16320;53.954;9.506;2023-03-23T14:41:34;19.75;;;3.80;;
29314;SDS011;16320;53.954;9.506;2023-03-23T14:44:40;22.95;;;3.85;;
29314;SDS011;16320;53.954;9.506;2023-03-23T14:47:56;23.52;;;3.35;;
29314;SDS011;16320;53.954;9.506;2023-03-23T14:51:03;27.67;;;4.25;;
29314;SDS011;16320;53.954;9.506;2023-03-23T14:54:09;17.70;;;3.63;;
29314;SDS011;16320;53.954;9.506;2023-03-23T14:57:15;31.65;;;4.90;;
29314;SDS011;16320;53.954;9.506;2023-03-23T15:00:30;35.40;;;5.03;;
29314;SDS011;16320;53.954;9.506;2023-03-23T15:03:40;18.30;;;4.03;;
29314;SDS011;16320;53.954;9.506;2023-03-23T15:06:50;23.85;;;3.88;;
29314;SDS011;16320;53.954;9.506;2023-03-23T15:09:58;23.13;;;3.95;;
29314;SDS011;16320;53.954;9.506;2023-03-23T15:13:02;29.60;;;4.35;;
29314;SDS011;16320;53.954;9.506;2023-03-23T15:16:06;20.60;;;4.03;;
29314;SDS011;16320;53.954;9.506;2023-03-23T15:19:25;28.55;;;3.85;;
29314;SDS011;16320;53.954;9.506;2023-03-23T15:22:44;26.98;;;4.30;;
29314;SDS011;16320;53.954;9.506;2023-03-23T15:25:50;19.58;;;3.50;;
29314;SDS011;16320;53.954;9.506;2023-03-23T15:29:11;25.38;;;3.65;;
29314;SDS011;16320;53.954;9.506;2023-03-23T15:32:22;20.65;;;3.35;;
29314;SDS011;16320;53.954;9.506;2023-03-23T15:35:32;19.45;;;4.15;;
29314;SDS011;16320;53.954;9.506;2023-03-23T15:38:39;23.25;;;3.67;;
29314;SDS011;16320;53.954;9.506;2023-03-23T15:41:50;20.00;;;4.30;;
29314;SDS011;16320;53.954;9.506;2023-03-23T15:44:56;16.75;;;3.78;;
29314;SDS011;16320;53.954;9.506;2023-03-23T15:48:14;19.38;;;3.40;;
29314;SDS011;16320;53.954;9.506;2023-03-23T15:51:19;27.25;;;4.25;;
29314;SDS011;16320;53.954;9.506;2023-03-23T15:54:24;27.05;;;4.20;;
29314;SDS011;16320;53.954;9.506;2023-03-23T15:57:33;20.73;;;4.38;;
29314;SDS011;16320;53.954;9.506;2023-03-23T16:00:37;17.05;;;3.47;;
29314;SDS011;16320;53.954;9.506;2023-03-23T16:04:04;21.10;;;3.45;;
29314;SDS011;16320;53.954;9.506;2023-03-23T16:07:11;18.02;;;3.78;;
29314;SDS011;16320;53.954;9.506;2023-03-23T16:10:17;22.27;;;4.25;;
29314;SDS011;16320;53.954;9.506;2023-03-23T16:13:25;18.02;;;3.65;;
29314;SDS011;16320;53.954;9.506;2023-03-23T16:16:33;23.23;;;4.43;;
29314;SDS011;16320;53.954;9.506;2023-03-23T16:19:44;22.77;;;3.83;;
29314;SDS011;16320;53.954;9.506;2023-03-23T16:22:49;18.60;;;3.42;;
29314;SDS011;16320;53.954;9.506;2023-03-23T16:25:54;23.92;;;3.60;;
29314;SDS011;16320;53.954;9.506;2023-03-23T16:28:58;19.10;;;3.60;;
29314;SDS011;16320;53.954;9.506;2023-03-23T16:32:20;20.23;;;3.13;;
29314;SDS011;16320;53.954;9.506;2023-03-23T16:35:24;17.27;;;3.45;;
29314;SDS011;16320;53.954;9.506;2023-03-23T16:38:28;24.40;;;3.55;;
29314;SDS011;16320;53.954;9.506;2023-03-23T16:41:33;19.52;;;3.53;;
29314;SDS011;16320;53.954;9.506;2023-03-23T16:44:37;24.58;;;3.88;;
29314;SDS011;16320;53.954;9.506;2023-03-23T16:47:42;18.98;;;3.97;;
29314;SDS011;16320;53.954;9.506;2023-03-23T16:50:47;26.02;;;3.97;;
29314;SDS011;16320;53.954;9.506;2023-03-23T16:53:54;22.70;;;3.45;;
29314;SDS011;16320;53.954;9.506;2023-03-23T16:56:58;16.73;;;2.75;;
29314;SDS011;16320;53.954;9.506;2023-03-23T17:00:04;21.95;;;3.80;;
29314;SDS011;16320;53.954;9.506;2023-03-23T17:03:13;21.02;;;2.97;;
29314;SDS011;16320;53.954;9.506;2023-03-23T17:06:19;21.90;;;4.35;;
29314;SDS011;16320;53.954;9.506;2023-03-23T17:09:27;16.15;;;3.42;;
29314;SDS011;16320;53.954;9.506;2023-03-23T17:12:31;19.33;;;3.92;;
29314;SDS011;16320;53.954;9.506;2023-03-23T17:15:37;16.92;;;3.38;;
29314;SDS011;16320;53.954;9.506;2023-03-23T17:18:43;23.30;;;4.47;;
29314;SDS011;16320;53.954;9.506;2023-03-23T17:21:47;20.23;;;3.05;;
29314;SDS011;16320;53.954;9.506;2023-03-23T17:24:52;16.23;;;2.88;;
29314;SDS011;16320;53.954;9.506;2023-03-23T17:27:57;18.20;;;3.63;;
29314;SDS011;16320;53.954;9.506;2023-03-23T17:31:09;21.02;;;3.60;;
29314;SDS011;16320;53.954;9.506;2023-03-23T17:34:14;20.77;;;4.35;;
29314;SDS011;16320;53.954;9.506;2023-03-23T17:37:22;25.98;;;4.90;;
29314;SDS011;16320;53.954;9.506;2023-03-23T17:40:26;19.25;;;3.58;;
29314;SDS011;16320;53.954;9.506;2023-03-23T17:43:31;18.30;;;3.88;;
29314;SDS011;16320;53.954;9.506;2023-03-23T17:46:36;24.95;;;4.22;;
29314;SDS011;16320;53.954;9.506;2023-03-23T17:49:40;26.60;;;5.03;;
29314;SDS011;16320;53.954;9.506;2023-03-23T17:52:44;21.33;;;5.32;;
29314;SDS011;16320;53.954;9.506;2023-03-23T17:55:49;23.15;;;5.32;;
29314;SDS011;16320;53.954;9.506;2023-03-23T17:58:53;24.75;;;5.38;;
29314;SDS011;16320;53.954;9.506;2023-03-23T18:01:57;25.85;;;5.43;;
29314;SDS011;16320;53.954;9.506;2023-03-23T18:05:02;22.65;;;4.68;;
29314;SDS011;16320;53.954;9.506;2023-03-23T18:08:08;24.50;;;4.13;;
29314;SDS011;16320;53.954;9.506;2023-03-23T18:11:13;23.77;;;4.55;;
29314;SDS011;16320;53.954;9.506;2023-03-23T18:14:18;20.85;;;4.60;;
29314;SDS011;16320;53.954;9.506;2023-03-23T18:17:24;16.65;;;4.32;;
29314;SDS011;16320;53.954;9.506;2023-03-23T18:20:29;25.45;;;6.60;;
29314;SDS011;16320;53.954;9.506;2023-03-23T18:23:35;24.60;;;6.80;;
29314;SDS011;16320;53.954;9.506;2023-03-23T18:26:52;30.75;;;7.55;;
29314;SDS011;16320;53.954;9.506;2023-03-23T18:29:56;22.02;;;6.13;;
29314;SDS011;16320;53.954;9.506;2023-03-23T18:33:01;18.13;;;3.88;;
29314;SDS011;16320;53.954;9.506;2023-03-23T18:36:07;18.90;;;5.35;;
29314;SDS011;16320;53.954;9.506;2023-03-23T18:39:12;14.75;;;3.30;;
29314;SDS011;16320;53.954;9.506;2023-03-23T18:42:17;15.93;;;5.88;;
29314;SDS011;16320;53.954;9.506;2023-03-23T18:45:21;12.60;;;2.75;;
29314;SDS011;16320;53.954;9.506;2023-03-23T18:54:34;12.98;;;4.25;;
29314;SDS011;16320;53.954;9.506;2023-03-23T18:57:41;19.73;;;7.25;;
29314;SDS011;16320;53.954;9.506;2023-03-23T19:00:45;28.17;;;10.90;;
29314;SDS011;16320;53.954;9.506;2023-03-23T19:03:50;20.40;;;6.80;;
29314;SDS011;16320;53.954;9.506;2023-03-23T19:06:55;16.67;;;4.30;;
29314;SDS011;16320;53.954;9.506;2023-03-23T19:10:01;28.50;;;8.27;;
29314;SDS011;16320;53.954;9.506;2023-03-23T19:13:06;20.88;;;7.78;;
29314;SDS011;16320;53.954;9.506;2023-03-23T19:16:12;11.85;;;3.75;;
29314;SDS011;16320;53.954;9.506;2023-03-23T19:19:16;21.85;;;6.03;;
29314;SDS011;16320;53.954;9.506;2023-03-23T19:22:21;12.95;;;4.25;;
29314;SDS011;16320;53.954;9.506;2023-03-23T19:25:26;14.50;;;4.03;;
29314;SDS011;16320;53.954;9.506;2023-03-23T19:28:30;13.15;;;3.22;;
29314;SDS011;16320;53.954;9.506;2023-03-23T19:35:00;11.50;;;2.72;;
29314;SDS011;16320;53.954;9.506;2023-03-23T19:38:07;15.05;;;3.25;;
29314;SDS011;16320;53.954;9.506;2023-03-23T19:41:12;14.35;;;2.75;;
29314;SDS011;16320;53.954;9.506;2023-03-23T19:44:18;16.90;;;3.40;;
29314;SDS011;16320;53.954;9.506;2023-03-23T19:47:23;12.45;;;3.45;;
29314;SDS011;16320;53.954;9.506;2023-03-23T19:50:28;9.20;;;2.78;;
29314;SDS011;16320;53.954;9.506;2023-03-23T19:53:34;11.07;;;2.80;;
29314;SDS011;16320;53.954;9.506;2023-03-23T19:56:39;9.77;;;3.08;;
29314;SDS011;16320;53.954;9.506;2023-03-23T19:59:43;12.13;;;3.65;;
29314;SDS011;16320;53.954;9.506;2023-03-23T20:02:48;5.60;;;2.53;;
29314;SDS011;16320;53.954;9.506;2023-03-23T20:05:58;11.15;;;2.92;;
29314;SDS011;16320;53.954;9.506;2023-03-23T20:09:08;9.20;;;2.90;;
29314;SDS011;16320;53.954;9.506;2023-03-23T20:12:13;11.40;;;3.15;;
29314;SDS011;16320;53.954;9.506;2023-03-23T20:15:18;11.60;;;3.40;;
29314;SDS011;16320;53.954;9.506;2023-03-23T20:18:23;13.63;;;2.60;;
29314;SDS011;16320;53.954;9.506;2023-03-23T20:21:28;8.60;;;2.72;;
29314;SDS011;16320;53.954;9.506;2023-03-23T20:24:33;8.57;;;2.67;;
29314;SDS011;16320;53.954;9.506;2023-03-23T20:27:37;9.38;;;3.13;;
29314;SDS011;16320;53.954;9.506;2023-03-23T20:30:42;12.32;;;3.38;;
29314;SDS011;16320;53.954;9.506;2023-03-23T20:34:12;7.78;;;2.47;;
29314;SDS011;16320;53.954;9.506;2023-03-23T20:37:37;10.07;;;2.67;;
29314;SDS011;16320;53.954;9.506;2023-03-23T20:40:43;5.03;;;2.45;;
29314;SDS011;16320;53.954;9.506;2023-03-23T20:43:48;8.00;;;2.47;;
29314;SDS011;16320;53.954;9.506;2023-03-23T20:46:52;8.77;;;3.13;;
29314;SDS011;16320;53.954;9.506;2023-03-23T20:49:57;12.15;;;3.42;;
29314;SDS011;16320;53.954;9.506;2023-03-23T20:53:01;11.80;;;3.22;;
29314;SDS011;16320;53.954;9.506;2023-03-23T20:56:07;11.52;;;3.65;;
29314;SDS011;16320;53.954;9.506;2023-03-23T20:59:13;11.63;;;3.30;;
29314;SDS011;16320;53.954;9.506;2023-03-23T21:02:18;11.70;;;3.47;;
29314;SDS011;16320;53.954;9.506;2023-03-23T21:05:23;10.95;;;4.00;;
29314;SDS011;16320;53.954;9.506;2023-03-23T21:08:27;8.93;;;3.30;;
29314;SDS011;16320;53.954;9.506;2023-03-23T21:11:32;8.40;;;3.13;;
29314;SDS011;16320;53.954;9.506;2023-03-23T21:14:38;6.03;;;2.83;;
29314;SDS011;16320;53.954;9.506;2023-03-23T21:17:43;21.15;;;3.88;;
29314;SDS011;16320;53.954;9.506;2023-03-23T21:20:47;7.90;;;3.72;;
29314;SDS011;16320;53.954;9.506;2023-03-23T21:23:54;11.20;;;4.13;;
29314;SDS011;16320;53.954;9.506;2023-03-23T21:27:00;7.82;;;3.38;;
29314;SDS011;16320;53.954;9.506;2023-03-23T21:30:06;9.00;;;3.95;;
29314;SDS011;16320;53.954;9.506;2023-03-23T21:33:12;12.00;;;3.95;;
29314;SDS011;16320;53.954;9.506;2023-03-23T21:36:17;9.55;;;4.20;;
29314;SDS011;16320;53.954;9.506;2023-03-23T21:45:33;9.73;;;4.03;;
29314;SDS011;16320;53.954;9.506;2023-03-23T21:48:37;15.90;;;4.70;;
29314;SDS011;16320;53.954;9.506;2023-03-23T21:51:43;17.13;;;7.03;;
29314;SDS011;16320;53.954;9.506;2023-03-23T21:54:48;12.73;;;6.03;;
29314;SDS011;16320;53.954;9.506;2023-03-23T21:57:52;9.75;;;5.97;;
29314;SDS011;16320;53.954;9.506;2023-03-23T22:04:04;11.23;;;6.85;;
29314;SDS011;16320;53.954;9.506;2023-03-23T22:07:10;14.93;;;7.03;;
29314;SDS011;16320;53.954;9.506;2023-03-23T22:10:15;16.92;;;7.32;;
29314;SDS011;16320;53.954;9.506;2023-03-23T22:13:19;13.95;;;6.65;;
29314;SDS011;16320;53.954;9.506;2023-03-23T22:16:24;13.90;;;7.53;;
29314;SDS011;16320;53.954;9.506;2023-03-23T22:19:30;12.30;;;7.65;;
29314;SDS011;16320;53.954;9.506;2023-03-23T22:22:35;14.27;;;7.43;;
29314;SDS011;16320;53.954;9.506;2023-03-23T22:25:40;13.60;;;7.78;;
29314;SDS011;16320;53.954;9.506;2023-03-23T22:28:45;14.23;;;7.50;;
29314;SDS011;16320;53.954;9.506;2023-03-23T22:31:51;13.07;;;8.38;;
29314;SDS011;16320;53.954;9.506;2023-03-23T22:34:56;14.05;;;8.77;;
29314;SDS011;16320;53.954;9.506;2023-03-23T22:38:01;15.00;;;9.38;;
29314;SDS011;16320;53.954;9.506;2023-03-23T22:41:06;13.23;;;9.45;;
29314;SDS011;16320;53.954;9.506;2023-03-23T22:44:14;13.93;;;9.65;;
29314;SDS011;16320;53.954;9.506;2023-03-23T22:47:22;14.10;;;9.05;;
29314;SDS011;16320;53.954;9.506;2023-03-23T22:53:31;17.55;;;11.07;;
29314;SDS011;16320;53.954;9.506;2023-03-23T22:56:35;15.68;;;10.38;;
29314;SDS011;16320;53.954;9.506;2023-03-23T22:59:41;18.40;;;10.50;;
29314;SDS011;16320;53.954;9.506;2023-03-23T23:02:45;17.83;;;10.75;;
29314;SDS011;16320;53.954;9.506;2023-03-23T23:05:50;15.20;;;11.00;;
29314;SDS011;16320;53.954;9.506;2023-03-23T23:08:56;19.00;;;10.57;;
29314;SDS011;16320;53.954;9.506;2023-03-23T23:12:02;19.25;;;12.50;;
29314;SDS011;16320;53.954;9.506;2023-03-23T23:15:06;21.70;;;11.93;;
29314;SDS011;16320;53.954;9.506;2023-03-23T23:18:14;21.67;;;13.38;;
29314;SDS011;16320;53.954;9.506;2023-03-23T23:21:20;22.92;;;13.88;;
29314;SDS011;16320;53.954;9.506;2023-03-23T23:24:29;27.33;;;13.48;;
29314;SDS011;16320;53.954;9.506;2023-03-23T23:27:33;22.05;;;13.02;;
29314;SDS011;16320;53.954;9.506;2023-03-23T23:30:38;21.58;;;13.38;;
29314;SDS011;16320;53.954;9.506;2023-03-23T23:33:42;22.00;;;12.98;;
29314;SDS011;16320;53.954;9.506;2023-03-23T23:39:51;24.88;;;13.93;;
29314;SDS011;16320;53.954;9.506;2023-03-23T23:42:55;23.92;;;13.68;;
29314;SDS011;16320;53.954;9.506;2023-03-23T23:45:59;23.73;;;13.15;;
29314;SDS011;16320;53.954;9.506;2023-03-23T23:49:04;21.48;;;12.98;;
29314;SDS011;16320;53.954;9.506;2023-03-23T23:52:09;21.85;;;13.77;;
29314;SDS011;16320;53.954;9.506;2023-03-23T23:58:20;22.20;;;12.77;;
